Time;durP1;ratioP1;P1;durP2;ratioP2;P2;SDS_P1;SDS_P2;PMS_P1;PMS_P2;Temp;Humidity;BMP_temperature;BMP_pressure;BME280_temperature;BME280_humidity;BME280_pressure;Samples;Min_cycle;Max_cycle;Signal;HPM_P1;HPM_P2
2023/01/09 00:00:53;;;;;;;9.77;8.77;;;;;;;;;;5093130;28;20450;-62
2023/01/09 00:03:20;;;;;;;10.10;9.00;;;;;;;;;;5093037;28;20804;-62
2023/01/09 00:05:47;;;;;;;9.83;8.80;;;;;;;;;;5092933;28;20802;-63
2023/01/09 00:08:14;;;;;;;9.50;8.50;;;;;;;;;;5093199;28;20457;-62
2023/01/09 00:10:41;;;;;;;10.00;9.00;;;;;;;;;;5093067;28;20450;-63
2023/01/09 00:13:08;;;;;;;11.17;10.17;;;;;;;;;;5092973;28;20449;-62
2023/01/09 00:15:35;;;;;;;9.70;8.70;;;;;;;;;;5093007;28;20449;-63
2023/01/09 00:18:03;;;;;;;11.70;9.83;;;;;;;;;;5092961;28;20443;-62
2023/01/09 00:20:30;;;;;;;11.20;9.27;;;;;;;;;;5092771;28;20967;-62
2023/01/09 00:22:57;;;;;;;10.17;9.17;;;;;;;;;;5092939;28;20445;-62
2023/01/09 00:25:24;;;;;;;9.70;8.77;;;;;;;;;;5092942;28;20450;-63
2023/01/09 00:27:51;;;;;;;11.70;8.83;;;;;;;;;;5092945;28;20628;-62
2023/01/09 00:30:18;;;;;;;10.00;8.97;;;;;;;;;;5092845;28;20453;-62
2023/01/09 00:32:45;;;;;;;10.60;9.47;;;;;;;;;;5092816;28;20792;-62
2023/01/09 00:35:15;;;;;;;11.97;8.63;;;;;;;;;;5092608;28;20454;-62
2023/01/09 00:37:42;;;;;;;9.07;8.20;;;;;;;;;;5092949;28;20549;-62
2023/01/09 00:40:10;;;;;;;11.10;10.10;;;;;;;;;;5092848;28;20446;-62
2023/01/09 00:42:37;;;;;;;10.33;9.33;;;;;;;;;;5092770;28;20536;-62
2023/01/09 00:45:06;;;;;;;11.60;9.50;;;;;;;;;;5092476;28;20494;-62
2023/01/09 00:47:35;;;;;;;10.00;9.00;;;;;;;;;;5092576;28;20454;-62
2023/01/09 00:50:05;;;;;;;10.77;9.50;;;;;;;;;;5092798;28;20447;-63
2023/01/09 00:52:36;;;;;;;10.33;9.03;;;;;;;;;;5092759;28;20447;-63
2023/01/09 00:55:03;;;;;;;10.43;9.33;;;;;;;;;;5092708;28;20455;-62
2023/01/09 00:57:31;;;;;;;9.47;8.57;;;;;;;;;;5092565;28;20482;-62
2023/01/09 00:59:58;;;;;;;10.23;9.23;;;;;;;;;;5092507;28;20447;-63
2023/01/09 01:02:25;;;;;;;11.33;8.90;;;;;;;;;;5092728;28;20450;-62
2023/01/09 01:07:38;;;;;;;10.63;9.53;;;;;;;;;;5096345;28;20445;-62
2023/01/09 01:10:07;;;;;;;10.00;9.00;;;;;;;;;;5096153;28;20445;-62
2023/01/09 01:12:34;;;;;;;9.80;8.57;;;;;;;;;;5096052;28;20456;-62
2023/01/09 01:15:01;;;;;;;10.20;9.30;;;;;;;;;;5096349;28;20443;-62
2023/01/09 01:17:28;;;;;;;10.13;9.03;;;;;;;;;;5096211;28;20533;-63
2023/01/09 01:19:55;;;;;;;10.67;9.67;;;;;;;;;;5096078;28;20446;-62
2023/01/09 01:22:22;;;;;;;12.00;10.07;;;;;;;;;;5096029;28;20452;-62
2023/01/09 01:24:50;;;;;;;11.23;10.00;;;;;;;;;;5095910;28;20580;-62
2023/01/09 01:27:17;;;;;;;11.03;9.73;;;;;;;;;;5095737;28;20537;-63
2023/01/09 01:29:44;;;;;;;10.13;9.23;;;;;;;;;;5095884;28;20447;-63
2023/01/09 01:32:11;;;;;;;10.95;9.63;;;;;;;;;;5095884;28;20560;-62
2023/01/09 01:34:38;;;;;;;10.50;9.40;;;;;;;;;;5095797;28;20191;-62
2023/01/09 01:37:05;;;;;;;10.60;9.50;;;;;;;;;;5095679;28;20804;-62
2023/01/09 01:39:32;;;;;;;11.53;10.33;;;;;;;;;;5095605;28;20509;-63
2023/01/09 01:42:01;;;;;;;10.30;9.03;;;;;;;;;;5095838;28;20450;-63
2023/01/09 01:44:46;;;;;;;11.80;9.03;;;;;;;;;;5095423;28;20581;-63
2023/01/09 01:47:13;;;;;;;10.70;9.57;;;;;;;;;;5095561;28;20453;-62
2023/01/09 01:49:40;;;;;;;11.90;10.20;;;;;;;;;;5095492;28;20454;-62
2023/01/09 01:52:08;;;;;;;11.97;9.70;;;;;;;;;;5095390;28;20447;-63
2023/01/09 01:54:35;;;;;;;12.07;10.40;;;;;;;;;;5095496;28;20533;-62
2023/01/09 01:57:03;;;;;;;12.13;10.87;;;;;;;;;;5095435;28;20560;-62
2023/01/09 01:59:34;;;;;;;12.60;10.30;;;;;;;;;;5095308;28;20478;-62
2023/01/09 02:02:01;;;;;;;11.25;9.82;;;;;;;;;;5095275;28;20449;-62
2023/01/09 02:04:29;;;;;;;10.97;9.87;;;;;;;;;;5095085;28;20302;-62
2023/01/09 02:06:57;;;;;;;11.20;10.10;;;;;;;;;;5095263;28;20449;-63
2023/01/09 02:09:25;;;;;;;11.47;10.27;;;;;;;;;;5095176;28;20462;-63
2023/01/09 02:11:56;;;;;;;11.57;10.32;;;;;;;;;;5095120;28;20454;-63
2023/01/09 02:14:26;;;;;;;10.70;9.60;;;;;;;;;;5094476;28;20192;-63
2023/01/09 02:16:57;;;;;;;11.43;10.33;;;;;;;;;;5094944;28;20471;-63
2023/01/09 02:19:40;;;;;;;13.27;9.57;;;;;;;;;;5094769;28;20541;-63
2023/01/09 02:22:11;;;;;;;10.88;9.68;;;;;;;;;;5094932;28;20877;-63
2023/01/09 02:24:49;;;;;;;13.83;11.40;;;;;;;;;;5094944;28;20639;-62
2023/01/09 02:27:23;;;;;;;10.90;9.80;;;;;;;;;;5094708;28;20477;-62
2023/01/09 02:30:09;;;;;;;14.80;11.70;;;;;;;;;;5094570;28;20927;-63
2023/01/09 02:32:44;;;;;;;12.13;10.70;;;;;;;;;;5094597;28;20936;-62
2023/01/09 02:35:17;;;;;;;12.83;11.07;;;;;;;;;;5094646;28;20467;-62
2023/01/09 02:37:45;;;;;;;12.10;10.77;;;;;;;;;;5094548;28;20460;-62
2023/01/09 02:40:17;;;;;;;13.20;11.13;;;;;;;;;;5094372;28;20188;-62
2023/01/09 02:42:44;;;;;;;13.03;11.17;;;;;;;;;;5094625;28;20816;-63
2023/01/09 02:45:11;;;;;;;12.23;10.50;;;;;;;;;;5094212;28;20493;-62
2023/01/09 02:47:40;;;;;;;12.90;11.23;;;;;;;;;;5094254;28;20963;-63
2023/01/09 02:50:10;;;;;;;14.10;11.73;;;;;;;;;;5094249;28;20449;-62
2023/01/09 02:52:44;;;;;;;11.73;10.53;;;;;;;;;;5094160;28;20812;-63
2023/01/09 02:55:12;;;;;;;12.90;10.53;;;;;;;;;;5094442;28;20454;-63
2023/01/09 02:57:47;;;;;;;13.85;11.32;;;;;;;;;;5094306;28;20889;-62
2023/01/09 03:00:21;;;;;;;13.00;11.27;;;;;;;;;;5094205;28;20196;-63
2023/01/09 03:02:51;;;;;;;13.15;11.77;;;;;;;;;;5094088;28;20454;-62
2023/01/09 03:05:22;;;;;;;12.67;11.27;;;;;;;;;;5093877;28;20247;-62
2023/01/09 03:07:54;;;;;;;11.45;9.85;;;;;;;;;;5094159;28;20507;-62
2023/01/09 03:10:22;;;;;;;12.00;10.80;;;;;;;;;;5094024;28;20186;-63
2023/01/09 03:12:52;;;;;;;13.50;11.27;;;;;;;;;;5093873;28;20456;-62
2023/01/09 03:15:21;;;;;;;12.43;11.13;;;;;;;;;;5093841;28;20451;-62
2023/01/09 03:17:49;;;;;;;14.17;11.63;;;;;;;;;;5093661;28;20541;-63
2023/01/09 03:20:19;;;;;;;14.10;10.90;;;;;;;;;;5093801;28;20458;-63
2023/01/09 03:22:53;;;;;;;13.03;11.20;;;;;;;;;;5093822;28;20544;-63
2023/01/09 03:25:20;;;;;;;14.00;12.20;;;;;;;;;;5093616;28;20895;-63
2023/01/09 03:27:47;;;;;;;12.30;10.73;;;;;;;;;;5092729;28;20451;-62
2023/01/09 03:30:14;;;;;;;12.37;11.10;;;;;;;;;;5093508;28;20916;-63
2023/01/09 03:32:41;;;;;;;13.30;11.50;;;;;;;;;;5093701;28;20450;-63
2023/01/09 03:35:08;;;;;;;12.27;10.15;;;;;;;;;;5093499;28;20455;-62
2023/01/09 03:37:35;;;;;;;15.38;11.50;;;;;;;;;;5093509;28;20296;-62
2023/01/09 03:40:03;;;;;;;11.80;10.60;;;;;;;;;;5093442;28;20195;-62
2023/01/09 03:42:30;;;;;;;12.07;10.80;;;;;;;;;;5093230;28;20932;-63
2023/01/09 03:44:57;;;;;;;13.43;10.80;;;;;;;;;;5093098;28;20495;-62
2023/01/09 03:47:24;;;;;;;13.67;11.90;;;;;;;;;;5093353;28;20542;-62
2023/01/09 03:49:51;;;;;;;13.00;11.33;;;;;;;;;;5093377;28;20453;-62
2023/01/09 03:52:18;;;;;;;11.87;10.67;;;;;;;;;;5093216;28;20481;-62
2023/01/09 03:54:45;;;;;;;11.43;10.33;;;;;;;;;;5093143;28;20446;-62
2023/01/09 03:57:13;;;;;;;12.97;11.50;;;;;;;;;;5093006;28;20451;-62
2023/01/09 03:59:40;;;;;;;12.70;11.10;;;;;;;;;;5093259;28;20450;-63
2023/01/09 04:02:07;;;;;;;11.47;10.27;;;;;;;;;;5093201;28;20447;-62
2023/01/09 04:04:34;;;;;;;12.50;11.20;;;;;;;;;;5092947;28;20803;-62
2023/01/09 04:07:01;;;;;;;13.70;10.97;;;;;;;;;;5093013;28;20457;-62
2023/01/09 04:09:28;;;;;;;13.10;10.97;;;;;;;;;;5093065;28;20537;-62
2023/01/09 04:11:55;;;;;;;13.27;10.40;;;;;;;;;;5092860;28;20541;-62
2023/01/09 04:14:23;;;;;;;12.43;10.60;;;;;;;;;;5093168;28;20451;-62
2023/01/09 04:16:50;;;;;;;11.30;10.20;;;;;;;;;;5093064;28;20893;-62
2023/01/09 04:19:17;;;;;;;13.00;11.80;;;;;;;;;;5092970;28;20447;-62
2023/01/09 04:21:44;;;;;;;11.80;10.23;;;;;;;;;;5092946;28;20447;-63
2023/01/09 04:24:11;;;;;;;11.70;10.40;;;;;;;;;;5092734;28;20553;-62
2023/01/09 04:26:38;;;;;;;11.88;10.68;;;;;;;;;;5092717;28;20443;-62
2023/01/09 04:29:05;;;;;;;12.57;10.93;;;;;;;;;;5092898;28;20192;-62
2023/01/09 04:31:33;;;;;;;11.73;10.30;;;;;;;;;;5092889;28;20460;-62
2023/01/09 04:34:00;;;;;;;11.87;10.63;;;;;;;;;;5092870;28;20547;-62
2023/01/09 04:36:27;;;;;;;10.90;9.80;;;;;;;;;;5092770;28;20452;-62
2023/01/09 04:38:54;;;;;;;11.23;9.90;;;;;;;;;;5095482;28;20452;-62
2023/01/09 04:44:06;;;;;;;14.60;11.60;;;;;;;;;;5096472;28;20458;-63
2023/01/09 04:46:34;;;;;;;12.20;10.63;;;;;;;;;;5096789;28;20537;-62
2023/01/09 04:49:01;;;;;;;16.17;11.60;;;;;;;;;;5096647;28;20450;-62
2023/01/09 04:51:28;;;;;;;11.17;9.60;;;;;;;;;;5096381;28;20454;-62
2023/01/09 04:53:55;;;;;;;15.07;11.20;;;;;;;;;;5096679;28;20443;-62
2023/01/09 04:56:22;;;;;;;11.27;10.07;;;;;;;;;;5096641;28;20486;-62
2023/01/09 04:58:49;;;;;;;12.23;10.07;;;;;;;;;;5096530;28;20442;-62
2023/01/09 05:01:15;;;;;;;11.03;9.67;;;;;;;;;;5096387;28;20530;-62
2023/01/09 05:03:44;;;;;;;11.43;9.70;;;;;;;;;;5096215;28;20526;-63
2023/01/09 05:06:12;;;;;;;11.90;10.40;;;;;;;;;;5096213;28;20488;-62
2023/01/09 05:08:39;;;;;;;13.00;10.47;;;;;;;;;;5096418;28;20533;-62
2023/01/09 05:11:06;;;;;;;11.50;10.30;;;;;;;;;;5096533;28;20447;-62
2023/01/09 05:13:33;;;;;;;11.23;10.00;;;;;;;;;;5096294;28;20455;-62
2023/01/09 05:15:59;;;;;;;12.13;10.33;;;;;;;;;;5096098;28;20456;-62
2023/01/09 05:18:26;;;;;;;12.70;11.40;;;;;;;;;;5095934;28;20806;-62
2023/01/09 05:20:55;;;;;;;12.50;10.37;;;;;;;;;;5096149;28;20453;-62
2023/01/09 05:23:22;;;;;;;14.17;11.50;;;;;;;;;;5096293;28;20447;-62
2023/01/09 05:25:48;;;;;;;11.30;10.17;;;;;;;;;;5095965;28;20513;-62
2023/01/09 05:28:15;;;;;;;11.93;9.03;;;;;;;;;;5095976;28;20986;-62
2023/01/09 05:30:42;;;;;;;13.57;11.27;;;;;;;;;;5095800;28;20489;-62
2023/01/09 05:33:09;;;;;;;15.10;10.77;;;;;;;;;;5095720;28;20447;-62
2023/01/09 05:35:36;;;;;;;11.97;9.77;;;;;;;;;;5095615;28;20470;-62
2023/01/09 05:38:05;;;;;;;11.77;10.20;;;;;;;;;;5095814;28;20446;-62
2023/01/09 05:40:32;;;;;;;12.00;10.07;;;;;;;;;;5095598;28;20450;-62
2023/01/09 05:42:58;;;;;;;14.50;11.10;;;;;;;;;;5095558;28;20483;-62
2023/01/09 05:45:26;;;;;;;13.47;11.70;;;;;;;;;;5095028;28;20482;-62
2023/01/09 05:47:53;;;;;;;18.47;16.03;;;;;;;;;;5095475;28;20449;-62
2023/01/09 05:50:21;;;;;;;18.07;14.77;;;;;;;;;;5094414;28;20433;-62
2023/01/09 05:52:48;;;;;;;14.20;12.13;;;;;;;;;;5095370;28;20473;-62
2023/01/09 05:55:16;;;;;;;13.00;10.67;;;;;;;;;;5095333;28;20454;-62
2023/01/09 05:57:43;;;;;;;11.53;10.33;;;;;;;;;;5095169;28;20456;-62
2023/01/09 06:00:11;;;;;;;12.23;10.20;;;;;;;;;;5095045;28;20537;-62
2023/01/09 06:02:38;;;;;;;11.77;10.30;;;;;;;;;;5095426;28;20453;-62
2023/01/09 06:05:05;;;;;;;15.07;10.97;;;;;;;;;;5094905;28;20989;-62
2023/01/09 06:07:38;;;;;;;12.37;11.00;;;;;;;;;;5094927;28;20450;-62
2023/01/09 06:10:05;;;;;;;13.17;11.80;;;;;;;;;;5095037;28;20904;-62
2023/01/09 06:12:33;;;;;;;13.57;10.60;;;;;;;;;;5094868;28;20449;-62
2023/01/09 06:15:00;;;;;;;12.30;10.67;;;;;;;;;;5095264;28;20531;-62
2023/01/09 06:17:27;;;;;;;12.40;10.33;;;;;;;;;;5094934;28;20453;-62
2023/01/09 06:19:54;;;;;;;13.27;11.33;;;;;;;;;;5094862;28;20453;-62
2023/01/09 06:22:21;;;;;;;15.30;11.10;;;;;;;;;;5094639;28;20534;-62
2023/01/09 06:24:48;;;;;;;18.73;11.80;;;;;;;;;;5094453;28;20449;-62
2023/01/09 06:27:15;;;;;;;14.47;11.80;;;;;;;;;;5094644;28;20448;-62
2023/01/09 06:29:43;;;;;;;12.90;10.23;;;;;;;;;;5094503;28;20945;-62
2023/01/09 06:32:10;;;;;;;14.97;10.80;;;;;;;;;;5094544;28;20449;-62
2023/01/09 06:34:37;;;;;;;14.93;10.30;;;;;;;;;;5094409;28;20545;-62
2023/01/09 06:37:04;;;;;;;14.60;11.37;;;;;;;;;;5094168;28;20984;-62
2023/01/09 06:39:31;;;;;;;12.60;10.30;;;;;;;;;;5094308;28;20452;-63
2023/01/09 06:41:58;;;;;;;14.60;11.00;;;;;;;;;;5094263;28;20446;-62
2023/01/09 06:44:25;;;;;;;15.40;11.17;;;;;;;;;;5094115;28;20556;-62
2023/01/09 06:46:53;;;;;;;15.87;11.40;;;;;;;;;;5094197;28;20486;-62
2023/01/09 06:49:22;;;;;;;18.97;12.93;;;;;;;;;;5094179;28;20540;-62
2023/01/09 06:51:49;;;;;;;13.10;11.10;;;;;;;;;;5093991;28;20447;-62
2023/01/09 06:54:16;;;;;;;13.17;10.80;;;;;;;;;;5093877;28;20460;-62
2023/01/09 06:56:43;;;;;;;13.47;11.50;;;;;;;;;;5093852;28;20450;-63
2023/01/09 06:59:10;;;;;;;16.27;12.40;;;;;;;;;;5093890;28;20468;-62
2023/01/09 07:01:38;;;;;;;12.00;10.13;;;;;;;;;;5093719;28;21039;-62
2023/01/09 07:04:08;;;;;;;13.60;11.13;;;;;;;;;;5093818;28;20458;-62
2023/01/09 07:06:35;;;;;;;14.20;11.33;;;;;;;;;;5093684;28;20501;-62
2023/01/09 07:09:02;;;;;;;14.30;11.60;;;;;;;;;;5093668;28;20458;-63
2023/01/09 07:11:29;;;;;;;15.33;11.90;;;;;;;;;;5093761;28;20803;-62
2023/01/09 07:13:56;;;;;;;14.23;11.27;;;;;;;;;;5093832;28;20451;-62
2023/01/09 07:16:23;;;;;;;13.90;12.30;;;;;;;;;;5093746;28;20449;-62
2023/01/09 07:18:51;;;;;;;15.87;11.67;;;;;;;;;;5093551;28;20453;-62
2023/01/09 07:21:19;;;;;;;15.00;9.83;;;;;;;;;;5093380;28;20454;-62
2023/01/09 07:23:46;;;;;;;13.30;10.90;;;;;;;;;;5093804;28;20858;-62
2023/01/09 07:26:13;;;;;;;15.73;11.32;;;;;;;;;;5093489;28;20489;-62
2023/01/09 07:28:40;;;;;;;14.77;10.40;;;;;;;;;;5093594;28;20188;-62
2023/01/09 07:31:07;;;;;;;14.20;11.60;;;;;;;;;;5093546;28;20575;-62
2023/01/09 07:33:34;;;;;;;16.00;11.07;;;;;;;;;;5093460;28;20449;-62
2023/01/09 07:36:01;;;;;;;16.90;11.97;;;;;;;;;;5093281;28;20453;-62
2023/01/09 07:38:30;;;;;;;13.97;11.53;;;;;;;;;;5093547;28;20537;-63
2023/01/09 07:40:57;;;;;;;14.17;10.70;;;;;;;;;;5093377;28;20465;-62
2023/01/09 07:43:24;;;;;;;13.13;11.70;;;;;;;;;;5093335;28;20798;-62
2023/01/09 07:45:51;;;;;;;18.93;11.50;;;;;;;;;;5093043;28;20940;-62
2023/01/09 07:48:18;;;;;;;18.23;12.10;;;;;;;;;;5092981;28;20524;-63
2023/01/09 07:50:45;;;;;;;16.67;11.90;;;;;;;;;;5092840;28;20450;-62
2023/01/09 07:53:12;;;;;;;14.70;12.03;;;;;;;;;;5092742;28;20457;-63
2023/01/09 07:55:42;;;;;;;15.87;12.00;;;;;;;;;;5092797;28;20457;-62
2023/01/09 07:58:09;;;;;;;13.63;11.67;;;;;;;;;;5093025;28;20450;-62
2023/01/09 08:00:36;;;;;;;14.90;11.23;;;;;;;;;;5092628;28;20456;-62
2023/01/09 08:03:04;;;;;;;15.33;11.73;;;;;;;;;;5092306;28;20461;-62
2023/01/09 08:05:31;;;;;;;12.90;10.70;;;;;;;;;;5092642;28;20543;-63
2023/01/09 08:07:57;;;;;;;15.23;11.57;;;;;;;;;;5092863;28;20545;-62
2023/01/09 08:10:24;;;;;;;13.17;10.57;;;;;;;;;;5092712;28;20885;-62
2023/01/09 08:12:53;;;;;;;16.63;12.43;;;;;;;;;;5091770;28;20820;-62
2023/01/09 08:15:20;;;;;;;25.53;16.47;;;;;;;;;;5092420;28;20487;-62
2023/01/09 08:17:47;;;;;;;13.40;11.87;;;;;;;;;;5072341;28;20550;-62
2023/01/09 08:20:14;;;;;;;21.10;14.17;;;;;;;;;;5071945;28;20478;-61
2023/01/09 08:22:42;;;;;;;16.17;11.90;;;;;;;;;;5072266;28;20451;-64
2023/01/09 08:25:09;;;;;;;16.53;11.63;;;;;;;;;;5071982;28;20538;-65
2023/01/09 08:27:36;;;;;;;15.10;12.53;;;;;;;;;;5089440;28;20847;-71
2023/01/09 08:30:05;;;;;;;12.53;10.60;;;;;;;;;;5092078;28;20447;-81
2023/01/09 08:32:32;;;;;;;19.93;12.00;;;;;;;;;;5092668;28;20450;-58
2023/01/09 08:34:59;;;;;;;13.70;11.43;;;;;;;;;;5074606;28;20542;-56
2023/01/09 08:37:26;;;;;;;12.17;10.87;;;;;;;;;;5087644;28;20964;-66
2023/01/09 08:39:53;;;;;;;14.70;11.10;;;;;;;;;;5087323;28;20999;-62
2023/01/09 08:47:51;;;;;;;16.13;11.60;;;;;;;;;;5081670;28;20466;-79
2023/01/09 08:50:18;;;;;;;13.67;10.60;;;;;;;;;;5092116;28;20498;-60
2023/01/09 08:52:45;;;;;;;16.00;11.47;;;;;;;;;;5092147;28;20450;-62
2023/01/09 08:55:12;;;;;;;15.13;11.13;;;;;;;;;;5092119;28;20443;-59
2023/01/09 08:57:47;;;;;;;13.00;10.93;;;;;;;;;;5084980;28;20445;-61
2023/01/09 09:00:16;;;;;;;14.30;11.03;;;;;;;;;;5082064;28;20449;-61
2023/01/09 09:02:43;;;;;;;13.80;10.73;;;;;;;;;;5072018;28;20492;-61
2023/01/09 09:05:10;;;;;;;13.80;10.90;;;;;;;;;;5071475;28;20444;-62
2023/01/09 09:07:37;;;;;;;15.20;11.70;;;;;;;;;;5077315;28;20475;-60
2023/01/09 09:10:04;;;;;;;13.77;9.97;;;;;;;;;;5089465;28;20446;-60
2023/01/09 09:12:31;;;;;;;11.33;10.00;;;;;;;;;;5084350;28;20444;-66
2023/01/09 09:15:15;;;;;;;14.20;10.83;;;;;;;;;;5071784;28;20476;-65
2023/01/09 09:17:44;;;;;;;14.93;11.10;;;;;;;;;;5071593;28;20454;-62
2023/01/09 09:20:11;;;;;;;12.23;10.50;;;;;;;;;;5071283;28;20448;-62
2023/01/09 09:22:38;;;;;;;12.80;10.20;;;;;;;;;;5071789;28;20878;-63
2023/01/09 09:25:06;;;;;;;12.33;10.30;;;;;;;;;;5076065;28;20874;-64
2023/01/09 09:27:33;;;;;;;12.30;10.40;;;;;;;;;;5085383;28;20491;-67
2023/01/09 09:30:00;;;;;;;11.00;9.77;;;;;;;;;;5085350;28;20489;-65
2023/01/09 09:32:26;;;;;;;11.93;9.83;;;;;;;;;;5083516;28;20982;-61
2023/01/09 09:34:55;;;;;;;12.63;11.17;;;;;;;;;;5084928;28;20534;-64
2023/01/09 09:37:22;;;;;;;12.90;9.83;;;;;;;;;;5085314;28;20461;-63
2023/01/09 09:39:49;;;;;;;13.77;10.73;;;;;;;;;;5085528;28;20476;-56
2023/01/09 09:45:26;;;;;;;12.77;9.50;;;;;;;;;;5046469;28;20499;-60
2023/01/09 09:47:58;;;;;;;13.93;11.40;;;;;;;;;;5095035;28;20486;-65
2023/01/09 09:50:51;;;;;;;12.87;9.63;;;;;;;;;;5095091;28;20558;-60
2023/01/09 09:53:22;;;;;;;24.03;11.27;;;;;;;;;;5091526;28;20483;-60
2023/01/09 09:55:50;;;;;;;14.60;9.70;;;;;;;;;;5083019;28;20458;-66
2023/01/09 09:58:21;;;;;;;11.47;9.17;;;;;;;;;;5084727;28;20443;-65
2023/01/09 10:00:48;;;;;;;14.10;10.70;;;;;;;;;;5085365;28;20466;-65
2023/01/09 10:03:21;;;;;;;14.97;10.83;;;;;;;;;;5083416;28;20535;-64
2023/01/09 10:05:52;;;;;;;14.10;10.87;;;;;;;;;;5084018;28;20439;-66
2023/01/09 10:08:26;;;;;;;16.40;11.77;;;;;;;;;;5085099;28;20489;-66
2023/01/09 10:10:54;;;;;;;13.43;10.77;;;;;;;;;;5080687;28;20535;-65
2023/01/09 10:16:11;;;;;;;14.97;10.97;;;;;;;;;;5074394;28;20492;-60
2023/01/09 10:18:44;;;;;;;15.93;11.50;;;;;;;;;;5074384;28;20461;-61
2023/01/09 10:21:15;;;;;;;13.73;11.20;;;;;;;;;;5074494;28;20451;-60
2023/01/09 10:23:48;;;;;;;15.00;11.70;;;;;;;;;;5074433;28;20487;-59
2023/01/09 10:26:21;;;;;;;12.90;11.17;;;;;;;;;;5074081;28;20558;-61
2023/01/09 10:28:54;;;;;;;12.70;10.97;;;;;;;;;;5073964;28;20459;-60
2023/01/09 10:31:24;;;;;;;12.17;10.50;;;;;;;;;;5074300;28;20448;-61
2023/01/09 10:33:59;;;;;;;12.60;10.20;;;;;;;;;;5074115;28;20907;-59
2023/01/09 10:36:35;;;;;;;10.00;9.00;;;;;;;;;;5079749;28;20457;-53
2023/01/09 10:39:03;;;;;;;13.90;10.17;;;;;;;;;;5074809;28;20599;-59
2023/01/09 10:41:34;;;;;;;9.70;8.70;;;;;;;;;;5073762;28;20953;-59
2023/01/09 10:44:05;;;;;;;10.53;9.07;;;;;;;;;;5074129;28;20534;-57
2023/01/09 10:46:34;;;;;;;11.10;9.53;;;;;;;;;;5075528;28;20567;-60
2023/01/09 10:49:04;;;;;;;9.60;7.97;;;;;;;;;;5093156;28;21004;-68
2023/01/09 10:51:36;;;;;;;9.70;8.07;;;;;;;;;;5093828;28;20477;-62
2023/01/09 10:54:04;;;;;;;11.17;8.60;;;;;;;;;;5093912;28;20856;-60
2023/01/09 10:56:32;;;;;;;8.63;7.70;;;;;;;;;;5093963;28;20542;-59
2023/01/09 10:58:59;;;;;;;10.40;8.20;;;;;;;;;;5093844;28;20451;-60
2023/01/09 11:01:27;;;;;;;9.63;8.60;;;;;;;;;;5076024;28;20454;-59
2023/01/09 11:03:57;;;;;;;9.20;7.90;;;;;;;;;;5073232;28;20815;-60
2023/01/09 11:06:26;;;;;;;9.10;8.20;;;;;;;;;;5082480;28;20471;-60
2023/01/09 11:08:56;;;;;;;11.07;8.73;;;;;;;;;;5082603;28;20883;-59
2023/01/09 11:11:32;;;;;;;8.03;7.27;;;;;;;;;;5083893;28;20446;-54
2023/01/09 11:14:04;;;;;;;9.00;7.70;;;;;;;;;;5090270;28;20453;-60
2023/01/09 11:16:31;;;;;;;7.40;6.70;;;;;;;;;;5093739;28;20457;-63
2023/01/09 11:19:00;;;;;;;8.33;7.30;;;;;;;;;;5093466;28;20512;-57
2023/01/09 11:21:30;;;;;;;7.80;6.90;;;;;;;;;;5093607;28;20806;-61
2023/01/09 11:24:17;;;;;;;7.53;6.83;;;;;;;;;;5093542;28;20457;-58
2023/01/09 11:26:44;;;;;;;7.97;7.18;;;;;;;;;;5092480;28;20537;-60
2023/01/09 11:29:12;;;;;;;8.60;7.70;;;;;;;;;;5092461;28;20444;-61
2023/01/09 11:31:40;;;;;;;9.02;6.78;;;;;;;;;;5093164;28;20766;-60
2023/01/09 11:34:07;;;;;;;10.00;6.50;;;;;;;;;;5093442;28;20200;-65
2023/01/09 11:36:34;;;;;;;6.63;5.93;;;;;;;;;;5093296;28;20546;-54
2023/01/09 11:39:03;;;;;;;6.33;5.70;;;;;;;;;;5083360;28;20447;-61
2023/01/09 11:41:33;;;;;;;5.80;5.27;;;;;;;;;;5081926;28;20638;-60
2023/01/09 11:44:00;;;;;;;6.83;4.93;;;;;;;;;;5081636;28;20448;-58
2023/01/09 11:46:32;;;;;;;6.93;5.90;;;;;;;;;;5083862;28;20438;-63
2023/01/09 11:49:00;;;;;;;5.53;5.13;;;;;;;;;;5072438;28;20456;-61
2023/01/09 11:51:27;;;;;;;5.60;5.10;;;;;;;;;;5072799;28;20500;-64
2023/01/09 11:54:13;;;;;;;5.70;5.20;;;;;;;;;;5072619;28;20882;-62
2023/01/09 11:56:41;;;;;;;4.37;4.00;;;;;;;;;;5075393;28;20534;-57
2023/01/09 11:59:10;;;;;;;4.63;4.23;;;;;;;;;;5080708;28;20969;-60
2023/01/09 12:01:56;;;;;;;5.40;4.50;;;;;;;;;;5082439;28;20537;-61
2023/01/09 12:04:27;;;;;;;4.90;4.40;;;;;;;;;;5085592;28;20447;-60
2023/01/09 12:07:00;;;;;;;4.30;4.00;;;;;;;;;;5092610;28;20475;-59
2023/01/09 12:09:36;;;;;;;4.03;3.67;;;;;;;;;;5082816;28;20959;-60
2023/01/09 12:12:05;;;;;;;5.73;4.13;;;;;;;;;;5072766;28;20443;-59
2023/01/09 12:14:41;;;;;;;5.40;3.90;;;;;;;;;;5072266;28;20461;-63
2023/01/09 12:17:15;;;;;;;3.73;3.40;;;;;;;;;;5072171;28;20509;-60
2023/01/09 12:19:51;;;;;;;3.80;3.50;;;;;;;;;;5072504;28;20543;-59
2023/01/09 12:22:23;;;;;;;4.60;4.20;;;;;;;;;;5072496;28;20538;-62
2023/01/09 12:25:02;;;;;;;3.83;3.53;;;;;;;;;;5072393;28;20448;-62
2023/01/09 12:27:35;;;;;;;4.17;3.87;;;;;;;;;;5072137;28;20482;-61
2023/01/09 12:30:26;;;;;;;4.03;3.73;;;;;;;;;;5072479;28;20452;-63
2023/01/09 12:32:57;;;;;;;4.33;4.03;;;;;;;;;;5056930;28;20811;-61
2023/01/09 12:35:30;;;;;;;6.47;4.13;;;;;;;;;;5071914;28;20534;-58
2023/01/09 12:38:13;;;;;;;6.50;4.87;;;;;;;;;;5072001;28;20475;-57
2023/01/09 12:40:55;;;;;;;6.53;4.30;;;;;;;;;;5071647;28;20531;-58
2023/01/09 12:43:26;;;;;;;4.50;4.10;;;;;;;;;;5071453;28;20448;-60
2023/01/09 12:46:00;;;;;;;4.43;4.13;;;;;;;;;;5070736;28;20477;-59
2023/01/09 12:48:35;;;;;;;6.80;4.30;;;;;;;;;;5071862;28;20486;-52
2023/01/09 12:51:20;;;;;;;4.63;3.73;;;;;;;;;;5072094;28;20956;-54
2023/01/09 12:53:51;;;;;;;3.63;3.30;;;;;;;;;;5072102;28;20450;-52
2023/01/09 12:56:22;;;;;;;4.13;3.67;;;;;;;;;;5071703;28;20538;-52
2023/01/09 12:58:51;;;;;;;4.80;3.80;;;;;;;;;;5072148;28;21073;-59
2023/01/09 13:01:22;;;;;;;6.57;3.20;;;;;;;;;;5075986;28;20969;-66
2023/01/09 13:03:51;;;;;;;3.40;3.10;;;;;;;;;;5075658;28;20452;-59
2023/01/09 13:06:19;;;;;;;3.50;2.90;;;;;;;;;;5075538;28;20451;-57
2023/01/09 13:08:48;;;;;;;2.90;2.70;;;;;;;;;;5075438;28;20525;-59
2023/01/09 13:11:17;;;;;;;3.60;2.80;;;;;;;;;;5074954;28;20481;-61
2023/01/09 13:13:47;;;;;;;4.20;3.00;;;;;;;;;;5075493;28;20878;-58
2023/01/09 13:16:16;;;;;;;5.03;2.50;;;;;;;;;;5075653;28;20450;-63
2023/01/09 13:18:44;;;;;;;5.47;3.00;;;;;;;;;;5075503;28;20448;-57
2023/01/09 13:21:12;;;;;;;3.03;2.83;;;;;;;;;;5075656;28;20443;-59
2023/01/09 13:23:44;;;;;;;4.97;2.90;;;;;;;;;;5075428;28;20545;-58
2023/01/09 13:26:12;;;;;;;7.90;3.10;;;;;;;;;;5075286;28;20943;-59
2023/01/09 13:28:42;;;;;;;2.87;2.33;;;;;;;;;;5075350;28;20529;-54
2023/01/09 13:31:22;;;;;;;3.00;2.70;;;;;;;;;;5075346;28;21020;-60
2023/01/09 13:33:51;;;;;;;5.00;2.70;;;;;;;;;;5075425;28;20483;-62
2023/01/09 13:36:24;;;;;;;3.00;2.70;;;;;;;;;;5075299;28;20472;-60
2023/01/09 13:38:51;;;;;;;4.00;2.60;;;;;;;;;;5075405;28;20530;-59
2023/01/09 13:44:05;;;;;;;2.57;2.27;;;;;;;;;;5074838;28;20438;-57
2023/01/09 13:46:36;;;;;;;2.50;2.13;;;;;;;;;;5074835;28;20475;-56
2023/01/09 13:49:03;;;;;;;3.63;2.60;;;;;;;;;;5074771;28;20486;-59
2023/01/09 13:51:55;;;;;;;2.90;2.43;;;;;;;;;;5075105;28;20517;-59
2023/01/09 13:54:41;;;;;;;6.00;2.80;;;;;;;;;;5074977;28;20447;-58
2023/01/09 13:57:25;;;;;;;3.00;2.13;;;;;;;;;;5074798;28;20547;-54
2023/01/09 13:59:52;;;;;;;5.27;3.77;;;;;;;;;;5075023;28;20440;-52
2023/01/09 14:02:34;;;;;;;4.70;4.33;;;;;;;;;;5074734;28;20907;-54
2023/01/09 14:05:03;;;;;;;3.20;2.90;;;;;;;;;;5073272;28;20467;-52
2023/01/09 14:07:31;;;;;;;4.43;2.23;;;;;;;;;;5074080;28;20502;-54
2023/01/09 14:09:59;;;;;;;3.17;2.90;;;;;;;;;;5074111;28;20473;-51
2023/01/09 14:12:27;;;;;;;2.57;2.37;;;;;;;;;;5074337;28;20448;-54
2023/01/09 14:14:56;;;;;;;3.07;2.77;;;;;;;;;;5074655;28;20535;-51
2023/01/09 14:17:26;;;;;;;3.00;2.67;;;;;;;;;;5074273;28;20546;-52
2023/01/09 14:19:56;;;;;;;3.73;3.43;;;;;;;;;;5074264;28;20802;-54
2023/01/09 14:22:26;;;;;;;2.90;2.70;;;;;;;;;;5074175;28;20843;-52
2023/01/09 14:24:55;;;;;;;2.60;2.33;;;;;;;;;;5074521;28;20491;-54
2023/01/09 14:27:40;;;;;;;2.10;1.90;;;;;;;;;;5074340;28;20538;-54
2023/01/09 14:30:17;;;;;;;2.30;2.10;;;;;;;;;;5074225;28;20452;-52
2023/01/09 14:32:45;;;;;;;2.63;2.20;;;;;;;;;;5074664;28;20544;-53
2023/01/09 14:35:17;;;;;;;3.57;2.10;;;;;;;;;;5073926;28;20991;-51
2023/01/09 14:37:46;;;;;;;3.03;2.23;;;;;;;;;;5074152;28;20512;-53
2023/01/09 14:40:20;;;;;;;2.17;1.87;;;;;;;;;;5073935;28;21026;-55
2023/01/09 14:42:47;;;;;;;2.97;1.93;;;;;;;;;;5074111;28;20887;-54
2023/01/09 14:45:15;;;;;;;2.50;1.90;;;;;;;;;;5073750;28;20579;-54
2023/01/09 14:47:43;;;;;;;2.70;1.87;;;;;;;;;;5073931;28;20592;-52
2023/01/09 14:50:16;;;;;;;3.30;2.57;;;;;;;;;;5073821;28;20543;-54
2023/01/09 14:52:48;;;;;;;2.67;2.33;;;;;;;;;;5073800;28;20458;-53
2023/01/09 14:55:18;;;;;;;3.60;3.30;;;;;;;;;;5073554;28;20550;-55
2023/01/09 14:57:48;;;;;;;10.33;5.40;;;;;;;;;;5073517;28;20452;-54